sensor_id;sensor_type;location;lat;lon;timestamp;pressure;altitude;pressure_sealevel;temperature;humidity
54850;BME280;47660;51.334;12.396;2023-04-28T00:01:50;100432.53;;;16.01;38.20
54850;BME280;47660;51.334;12.396;2023-04-28T00:04:15;100422.34;;;15.95;38.32
54850;BME280;47660;51.334;12.396;2023-04-28T00:06:41;100415.03;;;15.97;38.23
54850;BME280;47660;51.334;12.396;2023-04-28T00:09:06;100424.06;;;15.64;38.76
54850;BME280;47660;51.334;12.396;2023-04-28T00:11:36;100419.94;;;15.81;39.24
54850;BME280;47660;51.334;12.396;2023-04-28T00:14:06;100420.19;;;15.89;38.42
54850;BME280;47660;51.334;12.396;2023-04-28T00:16:31;100422.31;;;15.74;38.41
54850;BME280;47660;51.334;12.396;2023-04-28T00:18:57;100424.19;;;15.62;38.47
54850;BME280;47660;51.334;12.396;2023-04-28T00:21:22;100413.75;;;15.80;38.42
54850;BME280;47660;51.334;12.396;2023-04-28T00:23:50;100408.78;;;15.97;38.14
54850;BME280;47660;51.334;12.396;2023-04-28T00:26:15;100409.81;;;15.63;38.56
54850;BME280;47660;51.334;12.396;2023-04-28T00:28:40;100405.00;;;15.78;38.55
54850;BME280;47660;51.334;12.396;2023-04-28T00:31:14;100406.56;;;16.23;38.62
54850;BME280;47660;51.334;12.396;2023-04-28T00:33:41;100404.19;;;15.66;39.23
54850;BME280;47660;51.334;12.396;2023-04-28T00:36:07;100400.50;;;15.67;39.19
54850;BME280;47660;51.334;12.396;2023-04-28T00:38:33;100400.22;;;15.82;38.71
54850;BME280;47660;51.334;12.396;2023-04-28T00:41:01;100396.28;;;16.28;39.21
54850;BME280;47660;51.334;12.396;2023-04-28T00:43:26;100399.13;;;15.84;39.09
54850;BME280;47660;51.334;12.396;2023-04-28T00:45:53;100375.78;;;15.96;38.76
54850;BME280;47660;51.334;12.396;2023-04-28T00:48:18;100386.09;;;15.80;38.68
54850;BME280;47660;51.334;12.396;2023-04-28T00:50:44;100379.31;;;15.97;39.18
54850;BME280;47660;51.334;12.396;2023-04-28T00:53:11;100384.91;;;15.72;39.31
54850;BME280;47660;51.334;12.396;2023-04-28T00:55:37;100380.25;;;15.53;39.54
54850;BME280;47660;51.334;12.396;2023-04-28T00:58:07;100379.38;;;15.85;39.81
54850;BME280;47660;51.334;12.396;2023-04-28T01:00:33;100378.25;;;15.67;39.50
54850;BME280;47660;51.334;12.396;2023-04-28T01:02:59;100378.03;;;15.58;39.30
54850;BME280;47660;51.334;12.396;2023-04-28T01:05:25;100378.09;;;15.68;39.41
54850;BME280;47660;51.334;12.396;2023-04-28T01:07:51;100367.25;;;15.49;39.76
54850;BME280;47660;51.334;12.396;2023-04-28T01:10:16;100370.06;;;15.47;39.73
54850;BME280;47660;51.334;12.396;2023-04-28T01:12:42;100365.16;;;15.52;39.44
54850;BME280;47660;51.334;12.396;2023-04-28T01:15:14;100362.59;;;16.04;39.72
54850;BME280;47660;51.334;12.396;2023-04-28T01:17:40;100360.78;;;15.72;39.62
54850;BME280;47660;51.334;12.396;2023-04-28T01:20:06;100361.50;;;15.74;39.39
54850;BME280;47660;51.334;12.396;2023-04-28T01:22:35;100357.13;;;16.16;39.42
54850;BME280;47660;51.334;12.396;2023-04-28T01:25:02;100352.38;;;15.77;39.22
54850;BME280;47660;51.334;12.396;2023-04-28T01:27:28;100355.50;;;15.61;39.78
54850;BME280;47660;51.334;12.396;2023-04-28T01:29:53;100347.72;;;15.79;39.32
54850;BME280;47660;51.334;12.396;2023-04-28T01:32:19;100344.38;;;15.44;39.96
54850;BME280;47660;51.334;12.396;2023-04-28T01:34:44;100341.13;;;15.41;39.77
54850;BME280;47660;51.334;12.396;2023-04-28T01:37:10;100334.91;;;15.62;39.40
54850;BME280;47660;51.334;12.396;2023-04-28T01:39:36;100342.44;;;15.47;39.97
54850;BME280;47660;51.334;12.396;2023-04-28T01:42:03;100336.22;;;15.67;39.21
54850;BME280;47660;51.334;12.396;2023-04-28T01:44:32;100340.34;;;15.50;39.95
54850;BME280;47660;51.334;12.396;2023-04-28T01:46:59;100343.09;;;15.39;39.96
54850;BME280;47660;51.334;12.396;2023-04-28T01:49:25;100341.56;;;15.46;39.82
54850;BME280;47660;51.334;12.396;2023-04-28T01:51:50;100337.16;;;15.24;40.07
54850;BME280;47660;51.334;12.396;2023-04-28T01:54:16;100326.66;;;15.32;40.21
54850;BME280;47660;51.334;12.396;2023-04-28T01:56:41;100325.25;;;15.49;39.81
54850;BME280;47660;51.334;12.396;2023-04-28T01:59:06;100331.50;;;15.38;39.74
54850;BME280;47660;51.334;12.396;2023-04-28T02:01:32;100327.13;;;15.37;39.71
54850;BME280;47660;51.334;12.396;2023-04-28T02:04:00;100324.63;;;16.09;39.44
54850;BME280;47660;51.334;12.396;2023-04-28T02:06:25;100326.16;;;15.38;39.66
54850;BME280;47660;51.334;12.396;2023-04-28T02:08:52;100313.22;;;15.43;39.39
54850;BME280;47660;51.334;12.396;2023-04-28T02:11:17;100313.16;;;15.34;40.37
54850;BME280;47660;51.334;12.396;2023-04-28T02:13:42;100308.06;;;15.52;39.66
54850;BME280;47660;51.334;12.396;2023-04-28T02:16:08;100299.03;;;15.74;39.20
54850;BME280;47660;51.334;12.396;2023-04-28T02:18:34;100305.59;;;15.60;39.25
54850;BME280;47660;51.334;12.396;2023-04-28T02:21:10;100304.09;;;16.29;38.86
54850;BME280;47660;51.334;12.396;2023-04-28T02:23:39;100300.06;;;15.83;38.89
54850;BME280;47660;51.334;12.396;2023-04-28T02:26:05;100298.38;;;15.82;39.21
54850;BME280;47660;51.334;12.396;2023-04-28T02:28:31;100298.06;;;15.54;39.40
54850;BME280;47660;51.334;12.396;2023-04-28T02:31:09;100292.28;;;16.32;38.72
54850;BME280;47660;51.334;12.396;2023-04-28T02:33:36;100290.66;;;15.67;39.35
54850;BME280;47660;51.334;12.396;2023-04-28T02:36:03;100285.25;;;15.57;39.51
54850;BME280;47660;51.334;12.396;2023-04-28T02:38:29;100279.97;;;15.46;39.54
54850;BME280;47660;51.334;12.396;2023-04-28T02:41:02;100282.47;;;16.21;39.18
54850;BME280;47660;51.334;12.396;2023-04-28T02:43:32;100278.25;;;15.66;39.57
54850;BME280;47660;51.334;12.396;2023-04-28T02:45:58;100272.84;;;15.35;39.47
54850;BME280;47660;51.334;12.396;2023-04-28T02:48:24;100277.47;;;15.75;39.14
54850;BME280;47660;51.334;12.396;2023-04-28T02:50:50;100278.63;;;15.30;39.75
54850;BME280;47660;51.334;12.396;2023-04-28T02:53:19;100270.19;;;15.35;39.98
54850;BME280;47660;51.334;12.396;2023-04-28T02:55:45;100270.50;;;15.21;39.77
54850;BME280;47660;51.334;12.396;2023-04-28T02:58:10;100274.22;;;15.51;39.42
54850;BME280;47660;51.334;12.396;2023-04-28T03:00:38;100273.63;;;15.47;39.67
54850;BME280;47660;51.334;12.396;2023-04-28T03:03:04;100280.31;;;15.32;39.34
54850;BME280;47660;51.334;12.396;2023-04-28T03:05:29;100277.38;;;15.56;39.69
54850;BME280;47660;51.334;12.396;2023-04-28T03:07:55;100275.41;;;15.58;39.52
54850;BME280;47660;51.334;12.396;2023-04-28T03:10:20;100271.03;;;15.57;39.62
54850;BME280;47660;51.334;12.396;2023-04-28T03:12:46;100271.50;;;15.62;39.29
54850;BME280;47660;51.334;12.396;2023-04-28T03:15:11;100265.44;;;15.70;38.99
54850;BME280;47660;51.334;12.396;2023-04-28T03:17:37;100269.84;;;15.50;39.86
54850;BME280;47660;51.334;12.396;2023-04-28T03:20:06;100260.09;;;15.70;39.99
54850;BME280;47660;51.334;12.396;2023-04-28T03:22:32;100254.19;;;15.97;38.95
54850;BME280;47660;51.334;12.396;2023-04-28T03:24:59;100243.69;;;16.25;39.18
54850;BME280;47660;51.334;12.396;2023-04-28T03:27:26;100242.56;;;15.87;39.29
54850;BME280;47660;51.334;12.396;2023-04-28T03:29:53;100242.56;;;15.87;39.00
54850;BME280;47660;51.334;12.396;2023-04-28T03:32:19;100229.09;;;15.77;39.79
54850;BME280;47660;51.334;12.396;2023-04-28T03:34:44;100235.50;;;15.55;39.55
54850;BME280;47660;51.334;12.396;2023-04-28T03:37:10;100239.19;;;15.64;39.85
54850;BME280;47660;51.334;12.396;2023-04-28T03:39:38;100238.63;;;15.60;40.06
54850;BME280;47660;51.334;12.396;2023-04-28T03:42:03;100227.22;;;15.68;39.58
54850;BME280;47660;51.334;12.396;2023-04-28T03:44:29;100220.94;;;15.48;39.68
54850;BME280;47660;51.334;12.396;2023-04-28T03:46:54;100211.31;;;15.45;39.89
54850;BME280;47660;51.334;12.396;2023-04-28T03:49:19;100210.44;;;15.66;39.72
54850;BME280;47660;51.334;12.396;2023-04-28T03:51:45;100202.84;;;15.40;39.73
54850;BME280;47660;51.334;12.396;2023-04-28T03:54:10;100202.47;;;15.54;39.76
54850;BME280;47660;51.334;12.396;2023-04-28T03:56:36;100194.63;;;15.63;39.74
54850;BME280;47660;51.334;12.396;2023-04-28T03:59:01;100200.47;;;15.47;40.28
54850;BME280;47660;51.334;12.396;2023-04-28T04:01:27;100202.03;;;15.80;39.49
54850;BME280;47660;51.334;12.396;2023-04-28T04:03:52;100195.69;;;15.81;39.22
54850;BME280;47660;51.334;12.396;2023-04-28T04:06:18;100203.38;;;15.34;40.12
54850;BME280;47660;51.334;12.396;2023-04-28T04:08:44;100182.34;;;15.91;39.81
54850;BME280;47660;51.334;12.396;2023-04-28T04:11:12;100182.38;;;16.01;39.95
54850;BME280;47660;51.334;12.396;2023-04-28T04:13:38;100190.16;;;15.73;39.67
54850;BME280;47660;51.334;12.396;2023-04-28T04:16:03;100183.72;;;15.85;39.76
54850;BME280;47660;51.334;12.396;2023-04-28T04:18:29;100179.28;;;15.74;40.10
54850;BME280;47660;51.334;12.396;2023-04-28T04:20:55;100186.19;;;15.36;40.46
54850;BME280;47660;51.334;12.396;2023-04-28T04:23:23;100180.16;;;16.16;39.94
54850;BME280;47660;51.334;12.396;2023-04-28T04:25:49;100182.94;;;15.64;39.94
54850;BME280;47660;51.334;12.396;2023-04-28T04:28:14;100190.25;;;15.62;40.81
54850;BME280;47660;51.334;12.396;2023-04-28T04:30:40;100173.69;;;15.47;40.53
54850;BME280;47660;51.334;12.396;2023-04-28T04:33:08;100171.25;;;16.06;40.85
54850;BME280;47660;51.334;12.396;2023-04-28T04:35:36;100178.28;;;15.35;41.12
54850;BME280;47660;51.334;12.396;2023-04-28T04:38:01;100174.88;;;15.95;40.47
54850;BME280;47660;51.334;12.396;2023-04-28T04:40:27;100164.47;;;16.01;39.65
54850;BME280;47660;51.334;12.396;2023-04-28T04:42:52;100162.47;;;15.63;41.02
54850;BME280;47660;51.334;12.396;2023-04-28T04:45:18;100160.97;;;15.70;40.72
54850;BME280;47660;51.334;12.396;2023-04-28T04:47:43;100160.38;;;16.07;39.53
54850;BME280;47660;51.334;12.396;2023-04-28T04:50:11;100160.44;;;16.27;40.22
54850;BME280;47660;51.334;12.396;2023-04-28T04:52:37;100159.97;;;16.12;40.00
54850;BME280;47660;51.334;12.396;2023-04-28T04:55:04;100154.63;;;16.31;40.15
54850;BME280;47660;51.334;12.396;2023-04-28T04:57:29;100159.59;;;15.85;40.13
54850;BME280;47660;51.334;12.396;2023-04-28T04:59:57;100154.91;;;16.18;39.72
54850;BME280;47660;51.334;12.396;2023-04-28T05:02:22;100148.84;;;16.26;39.50
54850;BME280;47660;51.334;12.396;2023-04-28T05:04:48;100147.00;;;16.46;39.79
54850;BME280;47660;51.334;12.396;2023-04-28T05:07:13;100147.44;;;16.52;39.10
54850;BME280;47660;51.334;12.396;2023-04-28T05:09:38;100160.00;;;16.31;39.11
54850;BME280;47660;51.334;12.396;2023-04-28T05:12:06;100151.25;;;16.29;39.98
54850;BME280;47660;51.334;12.396;2023-04-28T05:14:32;100152.22;;;16.09;40.48
54850;BME280;47660;51.334;12.396;2023-04-28T05:16:57;100140.81;;;16.56;39.00
54850;BME280;47660;51.334;12.396;2023-04-28T05:19:23;100146.88;;;16.48;39.19
54850;BME280;47660;51.334;12.396;2023-04-28T05:21:48;100144.63;;;16.63;39.26
54850;BME280;47660;51.334;12.396;2023-04-28T05:24:16;100146.75;;;16.59;40.02
54850;BME280;47660;51.334;12.396;2023-04-28T05:26:42;100152.66;;;16.43;40.25
54850;BME280;47660;51.334;12.396;2023-04-28T05:29:09;100147.00;;;16.46;39.54
54850;BME280;47660;51.334;12.396;2023-04-28T05:31:35;100137.81;;;16.88;39.00
54850;BME280;47660;51.334;12.396;2023-04-28T05:34:03;100143.69;;;17.21;38.38
54850;BME280;47660;51.334;12.396;2023-04-28T05:36:29;100138.78;;;16.87;39.59
54850;BME280;47660;51.334;12.396;2023-04-28T05:38:56;100135.41;;;17.05;39.16
54850;BME280;47660;51.334;12.396;2023-04-28T05:41:21;100138.19;;;17.13;38.71
54850;BME280;47660;51.334;12.396;2023-04-28T05:43:49;100129.03;;;17.44;38.66
54850;BME280;47660;51.334;12.396;2023-04-28T05:46:16;100121.69;;;17.46;38.92
54850;BME280;47660;51.334;12.396;2023-04-28T05:48:45;100120.50;;;17.58;38.58
54850;BME280;47660;51.334;12.396;2023-04-28T05:51:13;100120.72;;;16.99;38.52
54850;BME280;47660;51.334;12.396;2023-04-28T05:53:41;100116.16;;;16.90;38.55
54850;BME280;47660;51.334;12.396;2023-04-28T05:56:07;100118.81;;;17.29;38.95
54850;BME280;47660;51.334;12.396;2023-04-28T05:58:32;100121.03;;;17.34;37.89
54850;BME280;47660;51.334;12.396;2023-04-28T06:00:58;100120.69;;;17.47;37.81
54850;BME280;47660;51.334;12.396;2023-04-28T06:03:24;100117.34;;;17.35;38.02
54850;BME280;47660;51.334;12.396;2023-04-28T06:05:49;100112.91;;;17.54;38.13
54850;BME280;47660;51.334;12.396;2023-04-28T06:08:15;100108.81;;;17.12;38.82
54850;BME280;47660;51.334;12.396;2023-04-28T06:10:41;100114.50;;;17.46;38.21
54850;BME280;47660;51.334;12.396;2023-04-28T06:13:06;100112.78;;;17.73;37.46
54850;BME280;47660;51.334;12.396;2023-04-28T06:15:33;100120.94;;;17.81;37.95
54850;BME280;47660;51.334;12.396;2023-04-28T06:17:59;100116.06;;;17.67;38.14
54850;BME280;47660;51.334;12.396;2023-04-28T06:20:25;100116.28;;;17.84;38.16
54850;BME280;47660;51.334;12.396;2023-04-28T06:22:52;100111.34;;;17.79;38.48
54850;BME280;47660;51.334;12.396;2023-04-28T06:25:21;100120.56;;;18.04;37.72
54850;BME280;47660;51.334;12.396;2023-04-28T06:27:51;100115.00;;;18.78;36.81
54850;BME280;47660;51.334;12.396;2023-04-28T06:30:18;100107.94;;;18.77;37.17
54850;BME280;47660;51.334;12.396;2023-04-28T06:32:44;100116.31;;;18.38;37.40
54850;BME280;47660;51.334;12.396;2023-04-28T06:35:13;100105.88;;;18.53;37.18
54850;BME280;47660;51.334;12.396;2023-04-28T06:37:44;100103.56;;;18.40;37.84
54850;BME280;47660;51.334;12.396;2023-04-28T06:40:09;100106.25;;;18.58;36.68
54850;BME280;47660;51.334;12.396;2023-04-28T06:42:35;100109.13;;;18.02;37.45
54850;BME280;47660;51.334;12.396;2023-04-28T06:45:03;100105.44;;;18.03;37.73
54850;BME280;47660;51.334;12.396;2023-04-28T06:47:28;100098.78;;;18.70;37.14
54850;BME280;47660;51.334;12.396;2023-04-28T06:49:56;100095.13;;;18.35;37.19
54850;BME280;47660;51.334;12.396;2023-04-28T06:52:24;100093.41;;;18.34;36.96
54850;BME280;47660;51.334;12.396;2023-04-28T06:54:49;100095.19;;;18.07;37.07
54850;BME280;47660;51.334;12.396;2023-04-28T06:57:16;100094.78;;;18.74;36.90
54850;BME280;47660;51.334;12.396;2023-04-28T06:59:41;100088.75;;;18.98;36.85
54850;BME280;47660;51.334;12.396;2023-04-28T07:02:10;100091.44;;;18.54;36.75
54850;BME280;47660;51.334;12.396;2023-04-28T07:04:38;100084.28;;;18.89;36.80
54850;BME280;47660;51.334;12.396;2023-04-28T07:07:06;100082.16;;;18.75;36.86
54850;BME280;47660;51.334;12.396;2023-04-28T07:09:35;100076.84;;;19.52;36.99
54850;BME280;47660;51.334;12.396;2023-04-28T07:12:00;100066.56;;;20.07;35.66
54850;BME280;47660;51.334;12.396;2023-04-28T07:14:28;100076.59;;;19.29;36.73
54850;BME280;47660;51.334;12.396;2023-04-28T07:16:54;100073.28;;;18.38;37.51
54850;BME280;47660;51.334;12.396;2023-04-28T07:19:19;100075.88;;;18.92;37.21
54850;BME280;47660;51.334;12.396;2023-04-28T07:21:45;100072.16;;;20.14;35.42
54850;BME280;47660;51.334;12.396;2023-04-28T07:24:11;100068.28;;;20.16;35.38
54850;BME280;47660;51.334;12.396;2023-04-28T07:26:36;100065.94;;;20.30;35.53
54850;BME280;47660;51.334;12.396;2023-04-28T07:29:01;100059.09;;;19.84;35.71
54850;BME280;47660;51.334;12.396;2023-04-28T07:31:27;100062.78;;;19.75;36.05
54850;BME280;47660;51.334;12.396;2023-04-28T07:33:53;100067.13;;;19.68;36.42
54850;BME280;47660;51.334;12.396;2023-04-28T07:36:18;100054.78;;;20.16;36.20
54850;BME280;47660;51.334;12.396;2023-04-28T07:38:44;100058.66;;;20.14;35.95
54850;BME280;47660;51.334;12.396;2023-04-28T07:41:10;100063.72;;;21.40;33.96
54850;BME280;47660;51.334;12.396;2023-04-28T07:43:35;100068.31;;;21.71;33.53
54850;BME280;47660;51.334;12.396;2023-04-28T07:46:03;100064.00;;;21.45;34.42
54850;BME280;47660;51.334;12.396;2023-04-28T07:48:28;100066.94;;;20.87;35.19
54850;BME280;47660;51.334;12.396;2023-04-28T07:50:53;100055.94;;;21.76;34.13
54850;BME280;47660;51.334;12.396;2023-04-28T07:53:21;100053.41;;;20.70;35.16
54850;BME280;47660;51.334;12.396;2023-04-28T07:55:47;100052.28;;;21.29;34.71
54850;BME280;47660;51.334;12.396;2023-04-28T07:58:12;100060.34;;;20.15;35.95
54850;BME280;47660;51.334;12.396;2023-04-28T08:00:40;100054.66;;;21.24;34.98
54850;BME280;47660;51.334;12.396;2023-04-28T08:03:08;100044.09;;;21.77;34.35
54850;BME280;47660;51.334;12.396;2023-04-28T08:05:33;100035.78;;;21.87;33.75
54850;BME280;47660;51.334;12.396;2023-04-28T08:08:01;100037.47;;;22.11;33.01
54850;BME280;47660;51.334;12.396;2023-04-28T08:10:27;100036.91;;;21.61;34.12
54850;BME280;47660;51.334;12.396;2023-04-28T08:12:55;100043.78;;;21.41;34.12
54850;BME280;47660;51.334;12.396;2023-04-28T08:15:23;100039.47;;;21.15;34.74
54850;BME280;47660;51.334;12.396;2023-04-28T08:17:50;100041.81;;;21.26;35.18
54850;BME280;47660;51.334;12.396;2023-04-28T08:20:19;100039.19;;;22.04;33.63
54850;BME280;47660;51.334;12.396;2023-04-28T08:22:45;100043.97;;;22.40;33.29
54850;BME280;47660;51.334;12.396;2023-04-28T08:25:14;100046.47;;;22.04;34.51
54850;BME280;47660;51.334;12.396;2023-04-28T08:27:40;100039.31;;;22.11;34.02
54850;BME280;47660;51.334;12.396;2023-04-28T08:30:07;100040.81;;;23.05;34.17
54850;BME280;47660;51.334;12.396;2023-04-28T08:32:35;100045.66;;;22.41;34.12
54850;BME280;47660;51.334;12.396;2023-04-28T08:35:00;100040.59;;;21.69;34.86
54850;BME280;47660;51.334;12.396;2023-04-28T08:37:29;100041.88;;;22.28;34.34
54850;BME280;47660;51.334;12.396;2023-04-28T08:39:55;100039.63;;;20.40;35.98
54850;BME280;47660;51.334;12.396;2023-04-28T08:42:30;100046.81;;;20.89;35.87
54850;BME280;47660;51.334;12.396;2023-04-28T08:44:57;100045.63;;;22.26;33.17
54850;BME280;47660;51.334;12.396;2023-04-28T08:47:36;100048.56;;;23.08;32.71
54850;BME280;47660;51.334;12.396;2023-04-28T08:50:06;100050.50;;;22.69;33.80
54850;BME280;47660;51.334;12.396;2023-04-28T08:52:33;100052.66;;;21.89;35.20
54850;BME280;47660;51.334;12.396;2023-04-28T08:55:05;100050.34;;;23.01;34.26
54850;BME280;47660;51.334;12.396;2023-04-28T08:57:37;100043.88;;;23.99;33.37
54850;BME280;47660;51.334;12.396;2023-04-28T09:00:06;100050.13;;;22.34;35.58
54850;BME280;47660;51.334;12.396;2023-04-28T09:02:32;100054.88;;;21.46;37.08
54850;BME280;47660;51.334;12.396;2023-04-28T09:05:05;100056.03;;;23.06;35.03
54850;BME280;47660;51.334;12.396;2023-04-28T09:07:31;100060.63;;;21.11;37.50
54850;BME280;47660;51.334;12.396;2023-04-28T09:12:47;100055.91;;;21.85;36.95
54850;BME280;47660;51.334;12.396;2023-04-28T09:15:28;100046.88;;;21.61;37.64
54850;BME280;47660;51.334;12.396;2023-04-28T09:17:54;100054.94;;;20.07;40.35
54850;BME280;47660;51.334;12.396;2023-04-28T09:20:24;100052.09;;;20.33;40.74
54850;BME280;47660;51.334;12.396;2023-04-28T09:22:51;100052.00;;;20.99;39.98
54850;BME280;47660;51.334;12.396;2023-04-28T09:25:18;100054.97;;;21.29;39.84
54850;BME280;47660;51.334;12.396;2023-04-28T09:27:47;100052.25;;;21.37;39.57
54850;BME280;47660;51.334;12.396;2023-04-28T09:30:13;100045.97;;;23.30;37.09
54850;BME280;47660;51.334;12.396;2023-04-28T09:32:38;100043.88;;;22.72;38.58
54850;BME280;47660;51.334;12.396;2023-04-28T09:35:04;100050.19;;;22.26;41.27
54850;BME280;47660;51.334;12.396;2023-04-28T09:37:32;100043.38;;;21.52;40.94
54850;BME280;47660;51.334;12.396;2023-04-28T09:40:06;100047.66;;;21.78;41.01
54850;BME280;47660;51.334;12.396;2023-04-28T09:45:05;100044.16;;;23.52;38.71
54850;BME280;47660;51.334;12.396;2023-04-28T09:47:32;100059.84;;;22.67;40.61
54850;BME280;47660;51.334;12.396;2023-04-28T09:50:01;100053.97;;;21.93;42.97
54850;BME280;47660;51.334;12.396;2023-04-28T09:52:27;100044.47;;;21.98;41.69
54850;BME280;47660;51.334;12.396;2023-04-28T09:54:54;100045.66;;;22.41;42.38
54850;BME280;47660;51.334;12.396;2023-04-28T09:57:21;100045.41;;;22.51;41.66
54850;BME280;47660;51.334;12.396;2023-04-28T09:59:50;100051.09;;;23.10;42.67
54850;BME280;47660;51.334;12.396;2023-04-28T10:02:17;100050.53;;;22.46;42.41
54850;BME280;47660;51.334;12.396;2023-04-28T10:04:49;100045.31;;;21.98;43.59
54850;BME280;47660;51.334;12.396;2023-04-28T10:07:17;100059.06;;;21.17;45.96
54850;BME280;47660;51.334;12.396;2023-04-28T10:09:49;100046.91;;;21.13;45.65
54850;BME280;47660;51.334;12.396;2023-04-28T10:12:22;100045.81;;;21.70;44.48
54850;BME280;47660;51.334;12.396;2023-04-28T10:14:49;100048.34;;;20.59;46.27
54850;BME280;47660;51.334;12.396;2023-04-28T10:17:16;100044.41;;;21.83;45.02
54850;BME280;47660;51.334;12.396;2023-04-28T10:19:44;100047.16;;;21.43;44.82
54850;BME280;47660;51.334;12.396;2023-04-28T10:27:42;100019.13;;;23.72;41.84
54850;BME280;47660;51.334;12.396;2023-04-28T10:30:18;100022.47;;;23.37;43.83
54850;BME280;47660;51.334;12.396;2023-04-28T10:32:45;100019.03;;;22.83;43.76
54850;BME280;47660;51.334;12.396;2023-04-28T10:38:12;100017.25;;;21.99;46.78
54850;BME280;47660;51.334;12.396;2023-04-28T10:40:45;100013.94;;;22.12;44.06
54850;BME280;47660;51.334;12.396;2023-04-28T10:43:11;100017.63;;;20.93;47.57
54850;BME280;47660;51.334;12.396;2023-04-28T10:58:35;100003.13;;;20.86;50.38
54850;BME280;47660;51.334;12.396;2023-04-28T11:16:54;99994.38;;;22.40;48.25
54850;BME280;47660;51.334;12.396;2023-04-28T11:19:22;99999.19;;;22.15;49.57
54850;BME280;47660;51.334;12.396;2023-04-28T11:21:49;100002.75;;;21.69;50.41
54850;BME280;47660;51.334;12.396;2023-04-28T11:24:17;99995.47;;;21.37;51.59
54850;BME280;47660;51.334;12.396;2023-04-28T11:26:45;99991.97;;;21.20;50.60
54850;BME280;47660;51.334;12.396;2023-04-28T11:29:11;99984.59;;;21.46;50.19
54850;BME280;47660;51.334;12.396;2023-04-28T11:31:41;99987.59;;;20.55;52.59
54850;BME280;47660;51.334;12.396;2023-04-28T11:34:18;99980.47;;;21.27;52.23
54850;BME280;47660;51.334;12.396;2023-04-28T11:36:48;99984.94;;;21.11;52.48
54850;BME280;47660;51.334;12.396;2023-04-28T11:39:14;99980.00;;;21.55;50.97
54850;BME280;47660;51.334;12.396;2023-04-28T11:41:46;99975.38;;;22.10;50.46
54850;BME280;47660;51.334;12.396;2023-04-28T11:44:14;99977.94;;;21.65;50.38
54850;BME280;47660;51.334;12.396;2023-04-28T11:46:47;99981.78;;;22.32;50.10
54850;BME280;47660;51.334;12.396;2023-04-28T11:49:16;99972.19;;;22.06;50.63
54850;BME280;47660;51.334;12.396;2023-04-28T11:51:42;99971.00;;;21.86;50.89
54850;BME280;47660;51.334;12.396;2023-04-28T11:54:10;99966.88;;;22.51;48.51
54850;BME280;47660;51.334;12.396;2023-04-28T11:56:42;99948.91;;;23.10;48.39
54850;BME280;47660;51.334;12.396;2023-04-28T11:59:12;99943.66;;;23.39;47.26
54850;BME280;47660;51.334;12.396;2023-04-28T12:01:49;99941.41;;;24.08;46.55
54850;BME280;47660;51.334;12.396;2023-04-28T12:04:34;99939.13;;;24.11;47.08
54850;BME280;47660;51.334;12.396;2023-04-28T12:09:28;99926.44;;;24.18;45.34
54850;BME280;47660;51.334;12.396;2023-04-28T12:12:03;99919.81;;;23.99;46.58
54850;BME280;47660;51.334;12.396;2023-04-28T12:14:30;99923.69;;;24.12;45.96
54850;BME280;47660;51.334;12.396;2023-04-28T12:17:01;99920.13;;;23.68;46.25
54850;BME280;47660;51.334;12.396;2023-04-28T12:19:27;99917.06;;;24.50;44.39
54850;BME280;47660;51.334;12.396;2023-04-28T12:21:59;99918.91;;;24.84;43.77
54850;BME280;47660;51.334;12.396;2023-04-28T12:24:28;99919.28;;;24.39;44.59
54850;BME280;47660;51.334;12.396;2023-04-28T12:26:53;99912.06;;;25.84;41.90
54850;BME280;47660;51.334;12.396;2023-04-28T12:29:38;99910.81;;;25.73;42.21
54850;BME280;47660;51.334;12.396;2023-04-28T12:32:06;99919.09;;;24.76;44.55
54850;BME280;47660;51.334;12.396;2023-04-28T12:34:31;99915.97;;;24.15;45.35
54850;BME280;47660;51.334;12.396;2023-04-28T12:37:01;99906.97;;;25.41;42.96
54850;BME280;47660;51.334;12.396;2023-04-28T12:39:27;99907.56;;;24.39;43.88
54850;BME280;47660;51.334;12.396;2023-04-28T12:41:53;99911.84;;;22.96;47.31
54850;BME280;47660;51.334;12.396;2023-04-28T12:44:23;99899.81;;;23.79;46.18
54850;BME280;47660;51.334;12.396;2023-04-28T12:46:50;99906.09;;;23.21;48.82
54850;BME280;47660;51.334;12.396;2023-04-28T12:49:15;99900.19;;;23.17;47.37
54850;BME280;47660;51.334;12.396;2023-04-28T12:51:41;99909.75;;;23.28;47.79
54850;BME280;47660;51.334;12.396;2023-04-28T12:54:09;99901.75;;;23.05;47.93
54850;BME280;47660;51.334;12.396;2023-04-28T12:56:34;99899.47;;;23.23;47.76
54850;BME280;47660;51.334;12.396;2023-04-28T12:59:02;99885.75;;;23.10;48.58
54850;BME280;47660;51.334;12.396;2023-04-28T13:01:28;99891.81;;;24.62;44.64
54850;BME280;47660;51.334;12.396;2023-04-28T13:03:56;99892.09;;;24.04;46.37
54850;BME280;47660;51.334;12.396;2023-04-28T13:06:21;99882.38;;;24.52;44.19
54850;BME280;47660;51.334;12.396;2023-04-28T13:08:47;99894.03;;;23.88;47.06
54850;BME280;47660;51.334;12.396;2023-04-28T13:11:13;99881.09;;;23.04;47.62
54850;BME280;47660;51.334;12.396;2023-04-28T13:13:38;99877.78;;;22.72;48.22
54850;BME280;47660;51.334;12.396;2023-04-28T13:16:05;99870.63;;;23.00;48.53
54850;BME280;47660;51.334;12.396;2023-04-28T13:18:31;99870.03;;;22.38;49.25
54850;BME280;47660;51.334;12.396;2023-04-28T13:20:56;99860.91;;;23.71;47.36
54850;BME280;47660;51.334;12.396;2023-04-28T13:23:24;99848.31;;;23.20;47.16
54850;BME280;47660;51.334;12.396;2023-04-28T13:25:49;99857.88;;;24.10;45.67